Time;durP1;ratioP1;P1;durP2;ratioP2;P2;SDS_P1;SDS_P2;PMS_P1;PMS_P2;Temp;Humidity;BMP_temperature;BMP_pressure;BME280_temperature;BME280_humidity;BME280_pressure;Samples;Min_cycle;Max_cycle;Signal;HPM_P1;HPM_P2
2021/01/11 00:00:07;;;;;;;30.53;22.10;;;;;;;;;;5002645;28;20453;-93
2021/01/11 00:02:33;;;;;;;33.13;23.33;;;;;;;;;;5004390;28;20448;-93
2021/01/11 00:04:59;;;;;;;34.30;22.90;;;;;;;;;;5001046;28;20495;-93
2021/01/11 00:07:25;;;;;;;29.67;21.03;;;;;;;;;;4994692;28;20236;-93
2021/01/11 00:09:51;;;;;;;28.17;21.33;;;;;;;;;;5003906;28;20480;-94
2021/01/11 00:12:18;;;;;;;31.47;19.30;;;;;;;;;;5006087;28;20462;-93
2021/01/11 00:14:44;;;;;;;27.85;17.70;;;;;;;;;;5009962;28;20826;-93
2021/01/11 00:17:11;;;;;;;26.63;16.80;;;;;;;;;;5009961;28;20214;-94
2021/01/11 00:19:37;;;;;;;23.55;16.08;;;;;;;;;;5004252;28;20453;-93
2021/01/11 00:22:03;;;;;;;24.17;16.65;;;;;;;;;;4999945;28;20664;-93
2021/01/11 00:24:29;;;;;;;29.93;16.40;;;;;;;;;;5002495;28;20201;-93
2021/01/11 00:26:56;;;;;;;26.07;16.83;;;;;;;;;;4998166;28;20519;-95
2021/01/11 00:29:23;;;;;;;25.30;16.85;;;;;;;;;;5001505;28;20481;-93
2021/01/11 00:31:49;;;;;;;23.23;14.83;;;;;;;;;;5001341;28;20209;-93
2021/01/11 00:34:16;;;;;;;24.43;14.53;;;;;;;;;;5002090;28;20447;-93
2021/01/11 00:36:45;;;;;;;23.58;15.45;;;;;;;;;;5002516;28;20468;-93
2021/01/11 00:39:11;;;;;;;29.30;18.20;;;;;;;;;;4999107;28;20210;-94
2021/01/11 00:41:37;;;;;;;39.37;25.07;;;;;;;;;;5002666;28;20485;-93
2021/01/11 00:44:03;;;;;;;30.90;20.50;;;;;;;;;;4997872;28;20455;-94
2021/01/11 00:46:29;;;;;;;36.03;23.50;;;;;;;;;;5000181;28;20473;-93
2021/01/11 00:48:56;;;;;;;37.27;23.80;;;;;;;;;;5002486;28;20445;-93
2021/01/11 00:51:23;;;;;;;38.50;24.00;;;;;;;;;;4998560;28;20484;-93
2021/01/11 00:53:49;;;;;;;39.37;24.33;;;;;;;;;;5002518;28;20456;-94
2021/01/11 00:56:16;;;;;;;27.13;18.87;;;;;;;;;;4999399;28;20472;-93
2021/01/11 00:58:43;;;;;;;24.93;18.73;;;;;;;;;;5001477;28;20821;-94
2021/01/11 01:01:09;;;;;;;29.70;20.37;;;;;;;;;;4998951;28;20453;-94
2021/01/11 01:03:35;;;;;;;32.60;20.33;;;;;;;;;;5002190;28;20448;-93
2021/01/11 01:06:02;;;;;;;27.53;20.17;;;;;;;;;;5002511;28;20468;-93
2021/01/11 01:08:29;;;;;;;30.53;19.70;;;;;;;;;;5002900;28;20507;-93
2021/01/11 01:10:55;;;;;;;31.67;22.13;;;;;;;;;;5001031;28;20448;-92
2021/01/11 01:13:21;;;;;;;32.57;21.00;;;;;;;;;;4999196;28;20467;-93
2021/01/11 01:15:47;;;;;;;42.20;21.57;;;;;;;;;;5001181;28;20471;-93
2021/01/11 01:18:13;;;;;;;32.87;20.03;;;;;;;;;;4997858;28;20540;-93
2021/01/11 01:20:39;;;;;;;32.30;21.23;;;;;;;;;;5001767;28;20620;-93
2021/01/11 01:23:05;;;;;;;33.27;21.20;;;;;;;;;;4999078;28;20468;-93
2021/01/11 01:25:32;;;;;;;32.77;20.73;;;;;;;;;;5001056;28;20464;-94
2021/01/11 01:27:58;;;;;;;31.57;20.47;;;;;;;;;;5001764;28;20497;-93
2021/01/11 01:30:24;;;;;;;34.20;22.20;;;;;;;;;;4998601;28;20912;-93
2021/01/11 01:32:50;;;;;;;29.10;20.20;;;;;;;;;;5001764;28;20460;-93
2021/01/11 01:35:16;;;;;;;30.35;19.63;;;;;;;;;;4999416;28;20459;-94
2021/01/11 01:37:42;;;;;;;32.33;20.70;;;;;;;;;;5002838;28;20209;-93
2021/01/11 01:40:08;;;;;;;36.87;22.17;;;;;;;;;;5001403;28;20212;-94
2021/01/11 01:42:35;;;;;;;34.70;22.67;;;;;;;;;;5001390;28;20463;-93
2021/01/11 01:45:01;;;;;;;34.37;22.50;;;;;;;;;;4999044;28;20208;-92
2021/01/11 01:47:28;;;;;;;34.45;21.60;;;;;;;;;;5001924;28;20505;-94
2021/01/11 01:49:54;;;;;;;39.20;23.80;;;;;;;;;;4999605;28;20621;-93
2021/01/11 01:52:20;;;;;;;37.45;24.50;;;;;;;;;;4997302;28;20212;-93
2021/01/11 01:54:48;;;;;;;33.33;21.73;;;;;;;;;;5000744;28;20237;-94
2021/01/11 01:57:14;;;;;;;40.70;21.63;;;;;;;;;;4997721;28;20468;-93
2021/01/11 01:59:42;;;;;;;38.90;23.58;;;;;;;;;;5001647;28;20482;-93
2021/01/11 02:02:12;;;;;;;36.53;24.23;;;;;;;;;;4998765;28;20832;-92
2021/01/11 02:04:39;;;;;;;38.53;23.57;;;;;;;;;;5001098;28;20506;-94
2021/01/11 02:07:08;;;;;;;40.72;23.30;;;;;;;;;;5000502;28;20487;-92
2021/01/11 02:09:43;;;;;;;42.00;24.17;;;;;;;;;;5000896;28;20233;-93
2021/01/11 02:12:16;;;;;;;41.97;22.70;;;;;;;;;;5002882;28;20212;-94
2021/01/11 02:14:50;;;;;;;38.30;21.50;;;;;;;;;;4999504;28;20236;-94
2021/01/11 02:17:17;;;;;;;35.50;21.23;;;;;;;;;;5001117;28;20455;-93
2021/01/11 02:20:06;;;;;;;40.03;22.43;;;;;;;;;;4996547;28;20217;-93
2021/01/11 02:22:40;;;;;;;39.72;24.38;;;;;;;;;;4992286;28;20980;-94
2021/01/11 02:25:12;;;;;;;39.70;23.50;;;;;;;;;;4996465;28;20216;-93
2021/01/11 02:27:45;;;;;;;39.55;25.63;;;;;;;;;;4999141;28;20248;-93
2021/01/11 02:30:19;;;;;;;46.30;22.58;;;;;;;;;;4998966;28;20208;-94
2021/01/11 02:32:47;;;;;;;42.10;21.73;;;;;;;;;;5000296;28;20212;-93
2021/01/11 02:35:14;;;;;;;35.72;22.95;;;;;;;;;;4996760;28;20455;-93
2021/01/11 02:37:42;;;;;;;44.33;24.65;;;;;;;;;;4999751;28;20213;-93
2021/01/11 02:40:09;;;;;;;46.30;23.73;;;;;;;;;;4998768;28;20214;-93
2021/01/11 02:42:36;;;;;;;34.97;20.83;;;;;;;;;;5000829;28;20468;-93
2021/01/11 02:45:02;;;;;;;45.35;24.25;;;;;;;;;;5004393;28;20225;-94
2021/01/11 02:47:32;;;;;;;39.27;22.73;;;;;;;;;;5000848;28;20236;-93
2021/01/11 02:49:59;;;;;;;45.92;25.08;;;;;;;;;;5000733;28;20456;-94
2021/01/11 02:52:30;;;;;;;39.47;23.87;;;;;;;;;;5000299;28;20208;-93
2021/01/11 02:55:00;;;;;;;46.42;23.27;;;;;;;;;;5006896;28;21176;-93
2021/01/11 02:57:30;;;;;;;38.55;22.98;;;;;;;;;;5015484;28;20189;-94
2021/01/11 02:59:59;;;;;;;34.53;19.40;;;;;;;;;;5010263;28;20212;-94
2021/01/11 03:02:26;;;;;;;33.33;17.00;;;;;;;;;;5002248;28;20482;-96
2021/01/11 03:04:53;;;;;;;24.42;15.40;;;;;;;;;;5006202;28;20213;-93
2021/01/11 03:07:19;;;;;;;27.35;18.80;;;;;;;;;;5003077;28;21560;-94
2021/01/11 03:09:47;;;;;;;23.98;15.55;;;;;;;;;;5003453;28;20235;-95
2021/01/11 03:12:14;;;;;;;33.05;16.80;;;;;;;;;;5003047;28;20671;-94
2021/01/11 03:14:40;;;;;;;30.42;17.60;;;;;;;;;;5001848;28;20213;-94
2021/01/11 03:17:06;;;;;;;32.60;16.80;;;;;;;;;;5006592;28;20220;-95
2021/01/11 03:19:32;;;;;;;35.47;18.37;;;;;;;;;;5004958;28;20215;-94
2021/01/11 03:21:59;;;;;;;24.90;13.07;;;;;;;;;;5004516;28;20475;-94
2021/01/11 03:24:25;;;;;;;25.08;14.18;;;;;;;;;;5000788;28;20215;-94
2021/01/11 03:26:51;;;;;;;23.48;14.30;;;;;;;;;;5002923;28;20268;-94
2021/01/11 03:29:18;;;;;;;22.37;14.20;;;;;;;;;;4987810;28;20268;-94
2021/01/11 03:31:45;;;;;;;19.98;12.63;;;;;;;;;;5003019;28;20475;-94
2021/01/11 03:34:11;;;;;;;20.42;12.77;;;;;;;;;;5003397;28;20212;-94
2021/01/11 03:36:38;;;;;;;20.60;12.97;;;;;;;;;;4998885;28;20558;-94
2021/01/11 03:39:05;;;;;;;22.30;13.18;;;;;;;;;;5002651;28;21064;-93
2021/01/11 03:41:32;;;;;;;12.80;8.98;;;;;;;;;;5000459;28;20211;-93
2021/01/11 03:43:58;;;;;;;12.40;9.17;;;;;;;;;;5003907;28;20209;-93
2021/01/11 03:46:24;;;;;;;16.90;10.87;;;;;;;;;;5000713;28;20470;-94
2021/01/11 03:48:50;;;;;;;14.40;10.40;;;;;;;;;;5003568;28;20480;-93
2021/01/11 03:51:17;;;;;;;16.17;10.80;;;;;;;;;;5003228;28;20503;-94
2021/01/11 03:53:47;;;;;;;13.10;8.97;;;;;;;;;;4987401;28;20469;-94
2021/01/11 03:56:24;;;;;;;11.07;7.33;;;;;;;;;;5005604;28;20475;-96
2021/01/11 03:58:50;;;;;;;8.20;6.90;;;;;;;;;;4999309;28;20449;-96
2021/01/11 04:01:16;;;;;;;9.43;7.60;;;;;;;;;;5002841;28;20595;-93
2021/01/11 04:03:42;;;;;;;12.43;9.15;;;;;;;;;;5000743;28;20535;-94
2021/01/11 04:06:09;;;;;;;30.50;18.45;;;;;;;;;;5003913;28;20219;-94
2021/01/11 04:08:35;;;;;;;15.33;9.87;;;;;;;;;;5000536;28;20253;-94
2021/01/11 04:11:01;;;;;;;17.13;12.03;;;;;;;;;;5003963;28;20829;-95
2021/01/11 04:13:28;;;;;;;14.07;9.60;;;;;;;;;;5002341;28;20518;-95
2021/01/11 04:15:54;;;;;;;10.73;8.27;;;;;;;;;;5001922;28;20221;-96
2021/01/11 04:18:20;;;;;;;10.95;7.18;;;;;;;;;;5009750;28;20265;-96
2021/01/11 04:25:57;;;;;;;14.43;8.80;;;;;;;;;;5047679;23;20223;-96
2021/01/11 04:28:23;;;;;;;11.60;7.60;;;;;;;;;;5006782;28;20499;-96
2021/01/11 04:30:51;;;;;;;9.88;7.70;;;;;;;;;;5009277;28;20205;-96
2021/01/11 04:33:17;;;;;;;11.50;7.53;;;;;;;;;;5010825;28;20192;-96
2021/01/11 04:35:43;;;;;;;11.93;8.93;;;;;;;;;;5092854;23;20184;-96
2021/01/11 04:40:52;;;;;;;8.77;6.27;;;;;;;;;;5369476;23;20471;-95
2021/01/11 04:43:19;;;;;;;11.52;6.32;;;;;;;;;;5055487;28;20451;-95
2021/01/11 04:53:43;;;;;;;5.30;4.03;;;;;;;;;;5354771;23;20467;-96
2021/01/11 04:56:10;;;;;;;3.80;3.50;;;;;;;;;;4986734;28;20464;-96
2021/01/11 04:58:53;;;;;;;5.82;3.90;;;;;;;;;;5003495;28;20220;-96
2021/01/11 05:01:21;;;;;;;8.33;4.63;;;;;;;;;;5001899;28;20208;-96
2021/01/11 05:03:48;;;;;;;6.40;5.30;;;;;;;;;;4992572;28;20432;-96
2021/01/11 05:06:15;;;;;;;7.80;4.57;;;;;;;;;;5014569;28;20453;-96
2021/01/11 05:08:42;;;;;;;4.97;4.03;;;;;;;;;;4986909;28;20500;-95
2021/01/11 05:13:50;;;;;;;9.97;7.40;;;;;;;;;;5005278;28;20197;-95
2021/01/11 05:16:22;;;;;;;7.70;6.25;;;;;;;;;;4994235;28;20463;-96
2021/01/11 05:18:57;;;;;;;10.40;6.93;;;;;;;;;;5007566;28;20186;-96
2021/01/11 05:21:39;;;;;;;8.75;5.10;;;;;;;;;;5023250;23;20512;-93
2021/01/11 05:24:27;;;;;;;11.23;8.18;;;;;;;;;;5004519;28;20212;-95
2021/01/11 05:26:53;;;;;;;11.40;8.50;;;;;;;;;;5003434;28;20201;-93
2021/01/11 05:29:20;;;;;;;11.73;7.90;;;;;;;;;;5005637;28;20207;-95
2021/01/11 05:42:39;;;;;;;13.37;9.53;;;;;;;;;;5015645;28;20246;-96
2021/01/11 05:45:09;;;;;;;15.67;11.50;;;;;;;;;;5017041;28;20446;-96
2021/01/11 05:47:52;;;;;;;17.80;13.52;;;;;;;;;;5015585;28;20474;-96
2021/01/11 05:56:50;;;;;;;16.55;12.43;;;;;;;;;;5069210;22;21388;-96
2021/01/11 05:59:18;;;;;;;17.80;13.43;;;;;;;;;;5005791;28;20191;-95
2021/01/11 06:02:14;;;;;;;21.23;15.18;;;;;;;;;;5009208;28;20203;-96
2021/01/11 06:09:47;;;;;;;10.57;8.60;;;;;;;;;;5025764;28;20227;-95
2021/01/11 06:12:14;;;;;;;14.25;9.52;;;;;;;;;;5030925;28;20212;-95
2021/01/11 06:14:41;;;;;;;12.40;10.10;;;;;;;;;;5024988;28;20217;-95
2021/01/11 06:17:07;;;;;;;13.47;9.17;;;;;;;;;;5024670;28;20459;-94
2021/01/11 06:19:33;;;;;;;13.30;10.32;;;;;;;;;;5026536;28;20450;-96
2021/01/11 06:21:59;;;;;;;13.82;10.05;;;;;;;;;;5015231;28;20220;-94
2021/01/11 06:24:25;;;;;;;12.70;9.20;;;;;;;;;;5017866;28;20211;-95
2021/01/11 06:26:52;;;;;;;11.80;10.20;;;;;;;;;;5018978;28;20444;-95
2021/01/11 06:29:27;;;;;;;13.50;10.80;;;;;;;;;;5024555;28;20458;-95
2021/01/11 06:31:56;;;;;;;17.70;13.07;;;;;;;;;;5026804;28;20451;-95
2021/01/11 06:34:32;;;;;;;24.33;17.23;;;;;;;;;;5026872;28;20482;-96
2021/01/11 06:36:58;;;;;;;27.43;20.60;;;;;;;;;;5031780;28;20455;-96
2021/01/11 06:39:30;;;;;;;27.83;19.20;;;;;;;;;;5024378;28;20464;-96
2021/01/11 06:41:58;;;;;;;26.97;17.43;;;;;;;;;;5019339;28;20208;-96
2021/01/11 06:44:28;;;;;;;32.03;18.30;;;;;;;;;;5019898;28;20885;-96
2021/01/11 06:46:56;;;;;;;24.80;18.07;;;;;;;;;;5027346;28;20448;-96
2021/01/11 06:49:26;;;;;;;29.43;18.87;;;;;;;;;;5026819;28;20515;-96
2021/01/11 06:52:07;;;;;;;26.30;18.63;;;;;;;;;;5028112;28;20519;-96
2021/01/11 06:54:38;;;;;;;25.80;19.63;;;;;;;;;;5022125;28;21021;-96
2021/01/11 06:57:16;;;;;;;26.50;17.70;;;;;;;;;;5026762;28;20459;-96
2021/01/11 06:59:45;;;;;;;26.37;18.17;;;;;;;;;;5027481;28;20482;-96
2021/01/11 07:02:19;;;;;;;23.47;16.27;;;;;;;;;;5030263;28;20535;-96
2021/01/11 07:04:46;;;;;;;21.70;16.00;;;;;;;;;;5027569;28;21004;-96
2021/01/11 07:07:17;;;;;;;18.13;16.23;;;;;;;;;;5027245;28;20487;-96
2021/01/11 07:09:55;;;;;;;18.20;15.80;;;;;;;;;;5027791;28;20515;-96
2021/01/11 07:12:21;;;;;;;22.80;16.83;;;;;;;;;;5006976;28;20879;-96
2021/01/11 07:14:58;;;;;;;26.30;19.63;;;;;;;;;;5013654;28;21013;-96
2021/01/11 07:17:35;;;;;;;38.37;24.60;;;;;;;;;;5002828;28;20444;-95
2021/01/11 07:20:01;;;;;;;38.50;27.60;;;;;;;;;;5020015;28;20462;-95
2021/01/11 07:22:27;;;;;;;37.43;28.23;;;;;;;;;;5002831;28;20474;-96
2021/01/11 07:24:53;;;;;;;40.27;27.53;;;;;;;;;;5011240;28;20514;-95
2021/01/11 07:27:19;;;;;;;36.57;26.93;;;;;;;;;;4996674;28;20483;-96
2021/01/11 07:29:46;;;;;;;40.60;29.57;;;;;;;;;;5017423;28;20462;-95
2021/01/11 07:32:12;;;;;;;43.00;31.63;;;;;;;;;;5016835;28;20614;-96
2021/01/11 07:34:39;;;;;;;42.97;31.60;;;;;;;;;;5004907;28;20456;-96
2021/01/11 07:37:06;;;;;;;43.73;32.93;;;;;;;;;;5015648;28;20486;-94
2021/01/11 07:39:37;;;;;;;41.50;31.60;;;;;;;;;;5011889;28;20470;-95
2021/01/11 07:42:04;;;;;;;44.23;32.23;;;;;;;;;;5003561;28;20460;-95
2021/01/11 07:44:31;;;;;;;40.77;29.43;;;;;;;;;;5006569;28;20919;-96
2021/01/11 07:46:59;;;;;;;41.60;29.90;;;;;;;;;;5010907;28;20463;-95
2021/01/11 07:49:25;;;;;;;50.00;33.53;;;;;;;;;;5010564;28;20445;-94
2021/01/11 07:51:53;;;;;;;43.53;31.40;;;;;;;;;;5005190;28;20841;-94
2021/01/11 07:54:20;;;;;;;44.20;32.30;;;;;;;;;;5002506;28;20496;-95
2021/01/11 07:56:47;;;;;;;50.93;35.63;;;;;;;;;;4994978;28;20461;-95
2021/01/11 07:59:13;;;;;;;63.33;41.90;;;;;;;;;;5014134;28;20457;-95
2021/01/11 08:01:40;;;;;;;59.43;39.83;;;;;;;;;;5006444;28;20468;-95
2021/01/11 08:04:06;;;;;;;52.97;34.70;;;;;;;;;;5012402;28;20457;-95
2021/01/11 08:06:47;;;;;;;45.27;32.03;;;;;;;;;;5007078;28;20473;-93
2021/01/11 08:09:14;;;;;;;43.50;34.67;;;;;;;;;;5007681;28;20504;-94
2021/01/11 08:11:40;;;;;;;39.10;29.97;;;;;;;;;;4995856;28;20464;-95
2021/01/11 08:14:07;;;;;;;37.17;29.33;;;;;;;;;;5018795;28;20443;-94
2021/01/11 08:16:34;;;;;;;36.77;27.20;;;;;;;;;;5022512;28;20476;-94
2021/01/11 08:19:03;;;;;;;40.63;28.00;;;;;;;;;;4998856;28;20452;-93
2021/01/11 08:21:29;;;;;;;31.53;23.67;;;;;;;;;;5010789;28;20986;-93
2021/01/11 08:24:00;;;;;;;31.50;24.57;;;;;;;;;;5003875;28;20908;-95
2021/01/11 08:26:27;;;;;;;28.30;21.40;;;;;;;;;;5014827;28;20452;-95
2021/01/11 08:28:53;;;;;;;27.73;20.43;;;;;;;;;;5000938;28;20564;-94
2021/01/11 08:31:20;;;;;;;32.70;21.97;;;;;;;;;;5005417;28;20468;-95
2021/01/11 08:33:46;;;;;;;31.43;22.97;;;;;;;;;;5009480;28;20484;-96
2021/01/11 08:36:19;;;;;;;33.40;23.80;;;;;;;;;;5003102;28;20456;-94
2021/01/11 08:39:03;;;;;;;30.13;22.10;;;;;;;;;;5010903;28;21019;-94
2021/01/11 08:41:32;;;;;;;31.50;22.33;;;;;;;;;;5004548;28;20464;-95
2021/01/11 08:43:58;;;;;;;31.53;22.20;;;;;;;;;;5006570;28;20460;-96
2021/01/11 08:46:24;;;;;;;29.77;21.00;;;;;;;;;;5012143;28;20448;-96
2021/01/11 08:48:50;;;;;;;28.43;20.80;;;;;;;;;;5013184;28;20483;-96
2021/01/11 08:51:23;;;;;;;29.33;20.70;;;;;;;;;;5002680;28;20479;-96
2021/01/11 08:53:49;;;;;;;25.97;20.50;;;;;;;;;;5013809;28;20466;-96
2021/01/11 08:56:27;;;;;;;26.50;20.23;;;;;;;;;;5008519;28;20480;-95
2021/01/11 08:58:54;;;;;;;26.87;21.50;;;;;;;;;;5006819;28;20444;-96
2021/01/11 09:01:22;;;;;;;29.00;21.80;;;;;;;;;;4995431;28;20449;-96
2021/01/11 09:03:50;;;;;;;34.33;25.00;;;;;;;;;;4985871;28;20523;-96
2021/01/11 09:06:31;;;;;;;40.80;30.77;;;;;;;;;;5002355;28;20480;-94
2021/01/11 09:09:03;;;;;;;46.47;34.03;;;;;;;;;;5004251;28;20503;-94
2021/01/11 09:11:29;;;;;;;55.60;39.80;;;;;;;;;;5020204;28;20452;-96
2021/01/11 09:14:04;;;;;;;53.03;39.93;;;;;;;;;;5021710;28;20482;-96
2021/01/11 09:16:32;;;;;;;39.83;30.90;;;;;;;;;;5023441;28;21016;-96
2021/01/11 09:19:04;;;;;;;40.10;28.27;;;;;;;;;;5016709;28;20469;-94
2021/01/11 09:21:30;;;;;;;28.73;20.97;;;;;;;;;;5024216;28;20475;-96
2021/01/11 09:23:56;;;;;;;24.13;18.70;;;;;;;;;;5020229;28;20456;-95
2021/01/11 09:26:22;;;;;;;28.37;19.80;;;;;;;;;;5025243;28;20452;-96
2021/01/11 09:29:06;;;;;;;25.90;20.60;;;;;;;;;;5025531;28;20495;-96
2021/01/11 09:31:34;;;;;;;30.63;21.10;;;;;;;;;;5009819;28;20554;-96
2021/01/11 09:34:00;;;;;;;35.43;23.10;;;;;;;;;;5023995;28;20460;-96
2021/01/11 09:36:31;;;;;;;28.67;19.97;;;;;;;;;;5018962;28;20447;-96
2021/01/11 09:38:57;;;;;;;28.90;21.60;;;;;;;;;;5020733;28;20498;-96
2021/01/11 09:41:24;;;;;;;27.73;19.30;;;;;;;;;;5035459;28;20478;-96
2021/01/11 09:43:56;;;;;;;25.27;19.37;;;;;;;;;;5020579;28;20464;-96
2021/01/11 09:46:22;;;;;;;24.70;19.20;;;;;;;;;;5018284;28;20983;-95
2021/01/11 09:48:50;;;;;;;27.43;20.37;;;;;;;;;;5014339;28;20508;-96
2021/01/11 09:51:16;;;;;;;32.13;22.30;;;;;;;;;;5018978;28;20967;-96
2021/01/11 09:53:42;;;;;;;29.50;23.27;;;;;;;;;;5020121;28;20472;-95
2021/01/11 09:56:08;;;;;;;30.80;22.97;;;;;;;;;;5022404;28;20483;-96
2021/01/11 09:58:34;;;;;;;31.40;22.27;;;;;;;;;;5020018;28;20472;-96
2021/01/11 10:01:00;;;;;;;25.43;20.27;;;;;;;;;;5023229;28;20451;-96
2021/01/11 10:03:26;;;;;;;27.50;20.60;;;;;;;;;;5024199;28;20451;-96
2021/01/11 10:05:58;;;;;;;25.90;18.67;;;;;;;;;;5026374;28;20458;-95
2021/01/11 10:08:25;;;;;;;25.03;20.20;;;;;;;;;;5024084;28;20514;-96
2021/01/11 10:10:51;;;;;;;22.10;17.77;;;;;;;;;;5027309;28;20459;-96
2021/01/11 10:13:17;;;;;;;23.03;18.40;;;;;;;;;;5023253;28;20459;-96
2021/01/11 10:15:44;;;;;;;24.30;18.30;;;;;;;;;;5024832;28;20448;-96
2021/01/11 10:18:10;;;;;;;22.30;16.93;;;;;;;;;;5027070;28;20471;-96
2021/01/11 10:20:36;;;;;;;26.10;18.30;;;;;;;;;;5024628;28;20455;-96
2021/01/11 10:23:03;;;;;;;20.90;17.27;;;;;;;;;;5024942;28;20471;-95
2021/01/11 10:25:29;;;;;;;22.97;17.30;;;;;;;;;;5025270;28;20502;-96
2021/01/11 10:27:55;;;;;;;17.63;14.90;;;;;;;;;;5021253;28;20484;-96
2021/01/11 10:30:21;;;;;;;23.03;15.93;;;;;;;;;;5018362;28;20452;-95
2021/01/11 10:32:47;;;;;;;19.80;16.30;;;;;;;;;;5024609;28;20456;-95
2021/01/11 10:35:17;;;;;;;23.83;15.70;;;;;;;;;;5015508;28;20448;-95
2021/01/11 10:37:43;;;;;;;21.77;18.30;;;;;;;;;;5020097;28;20615;-95
2021/01/11 10:40:12;;;;;;;24.33;18.00;;;;;;;;;;5026150;28;20466;-96
2021/01/11 10:42:38;;;;;;;24.47;17.30;;;;;;;;;;5023827;28;20443;-95
2021/01/11 10:45:04;;;;;;;24.27;18.30;;;;;;;;;;5025102;28;20455;-95
2021/01/11 10:47:30;;;;;;;28.03;20.23;;;;;;;;;;5022409;28;20491;-96
2021/01/11 10:49:57;;;;;;;38.60;24.43;;;;;;;;;;5029350;28;20475;-94
2021/01/11 10:52:23;;;;;;;36.23;24.53;;;;;;;;;;5025577;28;20478;-96
2021/01/11 10:54:49;;;;;;;33.10;23.00;;;;;;;;;;5025993;28;20463;-95
2021/01/11 10:57:16;;;;;;;35.27;24.40;;;;;;;;;;5020967;28;20468;-95
2021/01/11 10:59:42;;;;;;;30.13;21.70;;;;;;;;;;5022052;28;20451;-95
2021/01/11 11:02:08;;;;;;;32.47;22.57;;;;;;;;;;5024710;28;20475;-95
2021/01/11 11:04:35;;;;;;;33.20;23.50;;;;;;;;;;5018307;28;20455;-95
2021/01/11 11:07:01;;;;;;;34.33;23.57;;;;;;;;;;5013350;28;20460;-94
2021/01/11 11:09:28;;;;;;;28.80;22.87;;;;;;;;;;5009609;28;20936;-94
2021/01/11 11:11:54;;;;;;;32.33;22.67;;;;;;;;;;5011135;28;20457;-94
2021/01/11 11:14:21;;;;;;;30.57;22.30;;;;;;;;;;5009189;28;20444;-94
2021/01/11 11:16:47;;;;;;;31.33;22.07;;;;;;;;;;5013727;28;20464;-95
2021/01/11 11:19:13;;;;;;;33.47;23.67;;;;;;;;;;5014854;28;20839;-94
2021/01/11 11:21:39;;;;;;;33.23;24.00;;;;;;;;;;5009668;28;20456;-95
2021/01/11 11:24:06;;;;;;;24.40;18.33;;;;;;;;;;5014139;28;20818;-94
2021/01/11 11:26:32;;;;;;;16.70;13.17;;;;;;;;;;4996551;28;21867;-94
2021/01/11 11:28:58;;;;;;;18.77;12.07;;;;;;;;;;5011434;28;20479;-92
2021/01/11 11:31:25;;;;;;;17.37;13.03;;;;;;;;;;4995593;28;21365;-94
2021/01/11 11:33:51;;;;;;;16.90;13.00;;;;;;;;;;5008923;28;20460;-94
2021/01/11 11:36:18;;;;;;;13.90;11.37;;;;;;;;;;5002956;28;20475;-94
2021/01/11 11:38:45;;;;;;;15.57;12.40;;;;;;;;;;4994755;28;20460;-94
2021/01/11 11:41:11;;;;;;;20.90;14.83;;;;;;;;;;5012710;28;20448;-92
2021/01/11 11:43:37;;;;;;;14.27;11.80;;;;;;;;;;4990685;28;20468;-92
2021/01/11 11:46:03;;;;;;;15.60;11.77;;;;;;;;;;5006673;28;20452;-96
2021/01/11 11:48:30;;;;;;;15.00;12.20;;;;;;;;;;5006016;28;20492;-96
2021/01/11 11:50:56;;;;;;;14.83;12.10;;;;;;;;;;5014543;28;20452;-96
2021/01/11 11:53:22;;;;;;;16.13;12.47;;;;;;;;;;5006301;28;20449;-94
2021/01/11 11:55:48;;;;;;;12.90;9.77;;;;;;;;;;5021181;28;20467;-96
2021/01/11 11:58:15;;;;;;;12.70;10.37;;;;;;;;;;4997374;28;20464;-96
2021/01/11 12:00:41;;;;;;;15.10;11.13;;;;;;;;;;4992901;28;20461;-96
2021/01/11 12:03:07;;;;;;;12.97;11.30;;;;;;;;;;5006179;28;20503;-96
2021/01/11 12:05:34;;;;;;;18.30;13.30;;;;;;;;;;5005953;28;20530;-95
2021/01/11 12:08:00;;;;;;;18.73;13.10;;;;;;;;;;5011994;28;20514;-96
2021/01/11 12:10:26;;;;;;;16.30;13.57;;;;;;;;;;5021491;28;20451;-96
2021/01/11 12:12:52;;;;;;;18.47;13.77;;;;;;;;;;5023420;28;20448;-95
2021/01/11 12:15:21;;;;;;;16.43;13.60;;;;;;;;;;5021620;28;20448;-94
2021/01/11 12:17:47;;;;;;;22.07;17.10;;;;;;;;;;5023396;28;20448;-96
2021/01/11 12:20:14;;;;;;;23.73;16.87;;;;;;;;;;5023061;28;20456;-95
2021/01/11 12:22:41;;;;;;;27.33;20.27;;;;;;;;;;5020073;28;20572;-95
2021/01/11 12:25:07;;;;;;;25.03;20.20;;;;;;;;;;5020910;28;20460;-96
2021/01/11 12:27:33;;;;;;;33.43;21.97;;;;;;;;;;5018656;28;20937;-95
2021/01/11 12:29:59;;;;;;;20.40;16.57;;;;;;;;;;5023381;28;20458;-96
2021/01/11 12:32:26;;;;;;;14.83;12.33;;;;;;;;;;5020524;28;20484;-96
2021/01/11 12:34:52;;;;;;;15.80;12.77;;;;;;;;;;5021772;28;20448;-95
2021/01/11 12:37:18;;;;;;;14.90;12.60;;;;;;;;;;5017453;28;20484;-95
2021/01/11 12:39:46;;;;;;;15.40;12.53;;;;;;;;;;5017959;28;20440;-96
2021/01/11 12:42:13;;;;;;;13.13;11.10;;;;;;;;;;5015136;28;20464;-94
2021/01/11 12:44:39;;;;;;;17.10;12.00;;;;;;;;;;5012406;28;20465;-95
2021/01/11 12:47:05;;;;;;;12.90;10.53;;;;;;;;;;5020474;28;20456;-96
2021/01/11 12:49:31;;;;;;;11.20;9.83;;;;;;;;;;5018507;28;20915;-94
2021/01/11 12:51:58;;;;;;;14.40;9.67;;;;;;;;;;5014047;28;20472;-95
2021/01/11 12:54:24;;;;;;;10.40;8.87;;;;;;;;;;5014907;28;20467;-93
2021/01/11 12:56:51;;;;;;;11.10;9.70;;;;;;;;;;5021763;28;20463;-95
2021/01/11 12:59:17;;;;;;;11.43;9.80;;;;;;;;;;5019670;28;20456;-95
2021/01/11 13:01:43;;;;;;;14.07;9.27;;;;;;;;;;5019106;28;21339;-94
2021/01/11 13:04:09;;;;;;;14.60;10.00;;;;;;;;;;5020087;28;21002;-95
2021/01/11 13:06:35;;;;;;;11.23;8.87;;;;;;;;;;5014843;28;20456;-92
2021/01/11 13:09:03;;;;;;;12.30;9.80;;;;;;;;;;5020655;28;20540;-94
2021/01/11 13:11:29;;;;;;;14.30;10.47;;;;;;;;;;5019635;28;20474;-93
2021/01/11 13:13:57;;;;;;;10.83;8.10;;;;;;;;;;5022404;28;20456;-93
2021/01/11 13:16:24;;;;;;;20.30;12.83;;;;;;;;;;5013836;28;20469;-94
2021/01/11 13:18:50;;;;;;;20.73;13.07;;;;;;;;;;5022060;28;20465;-94
2021/01/11 13:21:16;;;;;;;13.40;9.00;;;;;;;;;;5020764;28;20478;-93
2021/01/11 13:23:42;;;;;;;9.70;8.03;;;;;;;;;;5018208;28;20474;-95
2021/01/11 13:26:08;;;;;;;9.17;8.00;;;;;;;;;;5024303;28;20468;-93
2021/01/11 13:28:34;;;;;;;13.87;8.87;;;;;;;;;;5024307;28;20495;-94
2021/01/11 13:31:05;;;;;;;15.83;14.23;;;;;;;;;;5015219;28;20466;-94
2021/01/11 13:33:31;;;;;;;13.97;11.20;;;;;;;;;;5006498;28;20452;-93
2021/01/11 13:35:57;;;;;;;13.37;9.03;;;;;;;;;;5017515;28;20456;-94
2021/01/11 13:38:24;;;;;;;12.17;7.67;;;;;;;;;;5016245;28;20466;-92
2021/01/11 13:40:50;;;;;;;9.37;6.80;;;;;;;;;;5018400;28;20546;-92
2021/01/11 13:43:16;;;;;;;11.40;6.33;;;;;;;;;;5020878;28;20471;-95
2021/01/11 13:45:44;;;;;;;14.63;9.37;;;;;;;;;;5017389;28;20463;-94
2021/01/11 13:48:11;;;;;;;11.90;8.87;;;;;;;;;;5019878;28;20479;-95
2021/01/11 13:50:37;;;;;;;21.30;10.50;;;;;;;;;;5018298;28;20460;-95
2021/01/11 13:53:04;;;;;;;15.33;10.00;;;;;;;;;;5019165;28;20467;-95
2021/01/11 13:55:30;;;;;;;13.67;9.20;;;;;;;;;;5018361;28;20463;-96
2021/01/11 13:57:56;;;;;;;15.70;8.73;;;;;;;;;;5021219;28;20455;-95
2021/01/11 14:00:23;;;;;;;13.83;9.37;;;;;;;;;;5009856;28;20917;-96
2021/01/11 14:02:49;;;;;;;14.50;9.47;;;;;;;;;;5022738;28;20481;-96
2021/01/11 14:05:16;;;;;;;12.73;9.60;;;;;;;;;;5022533;28;20451;-96
2021/01/11 14:07:59;;;;;;;14.50;10.80;;;;;;;;;;5025289;28;20475;-96
2021/01/11 14:10:43;;;;;;;16.40;10.97;;;;;;;;;;5010254;28;20861;-96
2021/01/11 14:13:09;;;;;;;15.10;12.27;;;;;;;;;;5006450;28;20460;-96
2021/01/11 14:15:43;;;;;;;20.53;12.20;;;;;;;;;;5018346;28;20456;-96
2021/01/11 14:18:09;;;;;;;16.93;13.27;;;;;;;;;;5006162;28;20617;-96
2021/01/11 14:20:37;;;;;;;21.27;14.30;;;;;;;;;;5003836;28;20462;-96
2021/01/11 14:23:03;;;;;;;16.20;11.90;;;;;;;;;;4994817;28;20469;-96
2021/01/11 14:25:29;;;;;;;15.73;12.03;;;;;;;;;;5003146;28;20981;-96
2021/01/11 14:27:55;;;;;;;16.63;12.80;;;;;;;;;;5006372;28;20499;-96
2021/01/11 14:30:21;;;;;;;11.30;10.10;;;;;;;;;;5013024;28;20458;-96
2021/01/11 14:32:47;;;;;;;18.57;13.27;;;;;;;;;;5011667;28;20474;-96
2021/01/11 14:35:14;;;;;;;18.00;13.90;;;;;;;;;;4991102;28;21150;-96
2021/01/11 14:37:40;;;;;;;17.83;14.30;;;;;;;;;;5008371;28;20544;-95
2021/01/11 14:40:07;;;;;;;21.33;16.03;;;;;;;;;;4997293;28;20472;-94
2021/01/11 14:42:34;;;;;;;19.60;14.40;;;;;;;;;;5005984;28;20462;-95
2021/01/11 14:45:00;;;;;;;24.13;18.03;;;;;;;;;;5003111;28;20463;-96
2021/01/11 14:47:26;;;;;;;21.53;15.03;;;;;;;;;;5012914;28;20458;-96
2021/01/11 14:49:52;;;;;;;18.43;13.20;;;;;;;;;;5005652;28;20568;-93
2021/01/11 14:52:18;;;;;;;13.37;10.20;;;;;;;;;;5009583;28;20456;-95
2021/01/11 14:54:45;;;;;;;23.77;16.73;;;;;;;;;;5013821;28;20464;-96
2021/01/11 14:57:11;;;;;;;21.73;14.23;;;;;;;;;;5008078;28;21173;-95
2021/01/11 14:59:37;;;;;;;20.70;15.30;;;;;;;;;;5010886;28;20550;-96
2021/01/11 15:02:04;;;;;;;19.57;14.40;;;;;;;;;;5004563;28;20455;-96
2021/01/11 15:04:30;;;;;;;18.67;15.40;;;;;;;;;;5020885;28;20466;-96